Time;durP1;ratioP1;P1;durP2;ratioP2;P2;SDS_P1;SDS_P2;PMS_P1;PMS_P2;Temp;Humidity;BMP_temperature;BMP_pressure;BME280_temperature;BME280_humidity;BME280_pressure;Samples;Min_cycle;Max_cycle;Signal;HPM_P1;HPM_P2
2021/09/18 00:02:20;;;;;;;15.83;6.70;;;;;;;21.95;71.26;94523.19;5034614;28;20453;-78
2021/09/18 00:04:48;;;;;;;17.43;6.73;;;;;;;21.94;71.46;94518.88;5032000;28;20448;-78
2021/09/18 00:07:15;;;;;;;20.07;6.30;;;;;;;21.94;71.05;94521.53;5034060;28;20811;-78
2021/09/18 00:09:41;;;;;;;16.30;7.27;;;;;;;21.93;70.95;94520.72;5034057;28;20855;-78
2021/09/18 00:12:09;;;;;;;13.77;6.77;;;;;;;21.90;70.50;94522.97;5031959;28;20446;-78
2021/09/18 00:14:37;;;;;;;18.03;7.20;;;;;;;21.90;70.88;94522.97;5033952;28;20452;-78
2021/09/18 00:17:06;;;;;;;20.73;7.50;;;;;;;21.92;70.75;94526.25;5033840;28;20861;-78
2021/09/18 00:19:33;;;;;;;26.80;8.13;;;;;;;21.91;70.78;94527.28;5033867;28;20451;-78
2021/09/18 00:22:00;;;;;;;25.33;7.43;;;;;;;21.92;70.67;94534.28;5033833;28;20452;-78
2021/09/18 00:24:27;;;;;;;21.40;7.27;;;;;;;21.88;70.75;94528.53;5015293;28;20440;-78
2021/09/18 00:26:54;;;;;;;14.60;7.60;;;;;;;21.83;70.79;94516.84;5034161;28;20444;-78
2021/09/18 00:29:21;;;;;;;18.03;7.33;;;;;;;21.83;70.81;94506.97;5033514;28;20998;-78
2021/09/18 00:31:47;;;;;;;13.27;6.60;;;;;;;21.86;70.93;94506.56;5033949;28;20546;-78
2021/09/18 00:34:16;;;;;;;13.77;7.17;;;;;;;21.90;71.01;94505.09;5033661;28;20443;-78
2021/09/18 00:36:43;;;;;;;18.87;6.43;;;;;;;21.93;70.95;94509.22;5033488;28;20836;-78
2021/09/18 00:39:10;;;;;;;24.50;7.10;;;;;;;21.94;70.73;94524.22;5014930;28;20454;-78
2021/09/18 00:41:37;;;;;;;14.10;7.80;;;;;;;21.95;70.77;94524.00;5033575;28;20551;-78
2021/09/18 00:44:04;;;;;;;14.10;6.67;;;;;;;21.96;71.05;94522.97;5033360;28;20459;-78
2021/09/18 00:46:31;;;;;;;13.03;6.73;;;;;;;21.95;71.17;94531.19;5033428;28;20438;-78
2021/09/18 00:48:58;;;;;;;14.10;5.90;;;;;;;21.90;71.53;94531.00;5033160;28;20490;-78
2021/09/18 00:51:27;;;;;;;14.73;6.03;;;;;;;21.86;71.11;94530.59;5033282;28;20452;-78
2021/09/18 00:53:55;;;;;;;14.37;5.90;;;;;;;21.86;71.02;94529.78;5033318;28;20939;-78
2021/09/18 00:56:22;;;;;;;12.50;6.97;;;;;;;21.88;71.26;94543.75;5033453;28;20485;-78
2021/09/18 00:58:49;;;;;;;15.20;6.30;;;;;;;21.89;71.53;94561.41;5032660;28;20444;-78
2021/09/18 01:01:16;;;;;;;23.03;7.63;;;;;;;21.90;72.71;94581.75;5033103;28;20447;-78
2021/09/18 01:03:44;;;;;;;19.30;7.30;;;;;;;21.87;73.89;94584.84;5033094;28;20454;-78
2021/09/18 01:06:11;;;;;;;17.30;8.20;;;;;;;21.75;75.33;94581.16;5032931;28;20457;-78
2021/09/18 01:08:41;;;;;;;9.23;6.43;;;;;;;21.74;77.47;94598.22;5032828;28;20514;-78
2021/09/18 01:11:11;;;;;;;13.97;7.50;;;;;;;21.65;78.94;94611.75;5033063;28;20447;-78
2021/09/18 01:13:38;;;;;;;22.30;8.40;;;;;;;21.59;80.78;94609.91;5032933;28;20454;-78
2021/09/18 01:16:05;;;;;;;15.20;9.27;;;;;;;21.54;81.57;94607.03;5032592;28;20454;-78
2021/09/18 01:18:32;;;;;;;11.93;7.50;;;;;;;21.48;82.94;94613.19;5032960;28;20451;-78
2021/09/18 01:20:59;;;;;;;13.07;7.60;;;;;;;21.47;82.83;94586.72;5033137;28;20441;-78
2021/09/18 01:23:28;;;;;;;19.73;7.73;;;;;;;21.34;83.70;94585.66;5032870;28;20955;-78
2021/09/18 01:25:55;;;;;;;16.87;7.27;;;;;;;21.30;84.65;94586.25;5032975;28;20443;-78
2021/09/18 01:28:24;;;;;;;22.77;7.30;;;;;;;21.27;85.88;94578.66;5032422;28;20492;-78
2021/09/18 01:30:51;;;;;;;19.70;7.50;;;;;;;21.18;86.51;94567.34;5032508;28;20935;-78
2021/09/18 01:33:19;;;;;;;17.47;7.67;;;;;;;21.09;86.77;94562.38;5032444;28;20460;-78
2021/09/18 01:35:48;;;;;;;17.13;8.10;;;;;;;20.79;88.97;94560.06;5032449;28;20443;-78
2021/09/18 01:38:15;;;;;;;23.20;8.20;;;;;;;20.66;89.94;94562.69;5033098;28;20454;-78
2021/09/18 01:40:44;;;;;;;20.37;10.13;;;;;;;20.49;91.66;94558.72;5032737;28;20441;-78
2021/09/18 01:43:12;;;;;;;12.53;7.63;;;;;;;20.45;92.72;94560.97;5032336;28;20810;-78
2021/09/18 01:45:39;;;;;;;15.40;7.60;;;;;;;20.41;92.92;94557.88;5032243;28;20446;-78
2021/09/18 01:48:08;;;;;;;13.73;8.23;;;;;;;20.44;93.27;94553.16;5032177;28;20452;-78
2021/09/18 01:50:40;;;;;;;21.40;9.87;;;;;;;20.47;93.58;94547.44;5032300;28;20934;-78
2021/09/18 01:53:10;;;;;;;16.63;8.77;;;;;;;20.49;93.17;94535.53;5032376;28;20446;-78
2021/09/18 01:55:37;;;;;;;14.37;8.07;;;;;;;20.58;93.43;94542.38;5032582;28;20446;-78
2021/09/18 01:58:06;;;;;;;16.10;8.20;;;;;;;20.63;93.37;94533.75;5032145;28;20450;-78
2021/09/18 02:00:36;;;;;;;22.37;8.33;;;;;;;20.63;93.66;94541.75;5032262;28;20451;-78
2021/09/18 02:03:06;;;;;;;13.73;7.63;;;;;;;20.62;93.62;94548.13;5032138;28;20818;-78
2021/09/18 02:05:33;;;;;;;13.77;7.77;;;;;;;20.64;93.57;94557.56;5032099;28;20453;-78
2021/09/18 02:08:00;;;;;;;18.03;8.67;;;;;;;20.64;93.14;94556.75;5013814;28;20438;-78
2021/09/18 02:10:30;;;;;;;17.77;7.90;;;;;;;20.61;92.98;94547.28;5032774;28;20482;-78
2021/09/18 02:12:57;;;;;;;13.87;8.43;;;;;;;20.52;93.70;94543.13;5036392;28;20442;-78
2021/09/18 02:15:26;;;;;;;12.73;7.50;;;;;;;20.38;94.13;94534.25;5036088;28;20443;-78
2021/09/18 02:17:54;;;;;;;16.57;8.90;;;;;;;20.38;94.21;94525.44;5036478;28;20466;-78
2021/09/18 02:20:23;;;;;;;13.27;7.67;;;;;;;20.40;94.19;94524.25;5036199;28;20990;-78
2021/09/18 02:22:50;;;;;;;20.50;9.53;;;;;;;20.44;94.82;94513.19;5035873;28;20446;-78
2021/09/18 02:25:18;;;;;;;15.30;8.03;;;;;;;20.42;94.69;94511.53;5036140;28;20450;-78
2021/09/18 02:27:46;;;;;;;21.40;8.90;;;;;;;20.48;94.80;94514.41;5036025;28;20443;-78
2021/09/18 02:30:16;;;;;;;16.50;8.20;;;;;;;20.50;94.25;94507.03;5035966;28;20493;-78
2021/09/18 02:32:45;;;;;;;15.07;6.80;;;;;;;20.49;93.94;94518.72;5035669;28;20948;-78
2021/09/18 02:35:13;;;;;;;17.17;7.90;;;;;;;20.54;93.97;94514.47;5035948;28;20474;-78
2021/09/18 02:37:41;;;;;;;11.33;7.60;;;;;;;20.60;93.70;94512.84;5035808;28;20453;-78
2021/09/18 02:40:10;;;;;;;19.07;7.37;;;;;;;20.61;93.71;94506.47;5035949;28;20466;-78
2021/09/18 02:42:39;;;;;;;13.90;7.30;;;;;;;20.56;93.62;94507.09;5017333;28;20442;-78
2021/09/18 02:45:07;;;;;;;19.67;8.30;;;;;;;20.50;94.08;94518.53;5035927;28;20450;-78
2021/09/18 02:47:34;;;;;;;21.10;9.90;;;;;;;20.31;95.12;94513.94;5035853;28;20449;-78
2021/09/18 02:50:05;;;;;;;18.60;8.40;;;;;;;20.28;95.70;94517.81;5035763;28;20492;-78
2021/09/18 02:52:32;;;;;;;23.63;8.83;;;;;;;20.02;97.63;94528.34;5035440;28;20532;-78
2021/09/18 02:54:59;;;;;;;21.67;8.30;;;;;;;19.78;100.00;94519.81;5035410;28;20950;-78
2021/09/18 02:57:26;;;;;;;17.63;8.60;;;;;;;19.50;100.00;94518.97;5035481;28;20484;-78
2021/09/18 02:59:53;;;;;;;20.43;10.03;;;;;;;19.61;100.00;94513.13;5035311;28;20449;-78
2021/09/18 03:02:19;;;;;;;17.40;9.93;;;;;;;19.46;100.00;94515.06;5016944;28;20941;-78
2021/09/18 03:04:46;;;;;;;15.63;10.20;;;;;;;19.40;100.00;94505.19;5035066;28;20929;-78
2021/09/18 03:07:15;;;;;;;20.80;11.13;;;;;;;19.22;100.00;94507.47;5035248;28;20451;-78
2021/09/18 03:09:42;;;;;;;20.80;10.33;;;;;;;19.32;100.00;94497.31;5035234;28;20506;-78
2021/09/18 03:12:09;;;;;;;23.60;11.30;;;;;;;19.30;100.00;94499.34;5035480;28;20453;-78
2021/09/18 03:14:35;;;;;;;23.20;10.23;;;;;;;19.31;100.00;94501.00;5016609;28;20455;-78
2021/09/18 03:17:03;;;;;;;25.53;10.77;;;;;;;19.40;100.00;94508.66;5016327;28;20453;-78
2021/09/18 03:19:29;;;;;;;20.40;12.20;;;;;;;19.50;100.00;94495.84;5016527;28;20443;-78
2021/09/18 03:21:56;;;;;;;21.33;10.40;;;;;;;19.51;99.69;94496.66;5034155;28;20441;-77
2021/09/18 03:24:25;;;;;;;23.27;11.40;;;;;;;19.57;99.69;94490.56;5034817;28;20960;-78
2021/09/18 03:26:52;;;;;;;10.40;9.30;;;;;;;19.63;99.17;94495.13;5034925;28;20453;-78
2021/09/18 03:29:19;;;;;;;14.03;8.80;;;;;;;19.69;99.08;94494.34;5034852;28;20493;-78
2021/09/18 03:31:46;;;;;;;26.50;11.53;;;;;;;19.75;98.74;94496.22;5034874;28;20457;-78
2021/09/18 03:34:13;;;;;;;20.10;9.27;;;;;;;19.79;98.48;94494.81;5034704;28;20460;-78
2021/09/18 03:36:40;;;;;;;17.70;10.20;;;;;;;19.84;98.51;94490.75;5034595;28;20526;-78
2021/09/18 03:39:06;;;;;;;23.40;10.00;;;;;;;19.87;97.61;94490.34;5034753;28;20474;-78
2021/09/18 03:41:35;;;;;;;12.77;8.40;;;;;;;19.85;97.83;94485.22;5034692;28;20806;-78
2021/09/18 03:44:02;;;;;;;28.87;11.10;;;;;;;19.88;98.05;94489.31;5034669;28;20524;-78
2021/09/18 03:46:29;;;;;;;18.70;8.77;;;;;;;19.91;97.80;94497.75;5034632;28;20817;-78
2021/09/18 03:48:55;;;;;;;21.17;10.30;;;;;;;19.92;97.83;94472.75;5034389;28;20446;-78
2021/09/18 03:51:22;;;;;;;16.60;8.90;;;;;;;19.95;97.46;94468.88;5034879;28;20455;-78
2021/09/18 03:53:49;;;;;;;19.43;10.07;;;;;;;19.92;97.29;94466.59;5034688;28;20449;-77
2021/09/18 03:56:16;;;;;;;25.00;10.07;;;;;;;19.96;97.72;94473.22;5034182;28;20479;-78
2021/09/18 03:58:45;;;;;;;18.33;9.63;;;;;;;19.96;97.81;94484.69;5015888;28;20468;-78
2021/09/18 04:01:11;;;;;;;20.70;9.63;;;;;;;19.98;98.00;94493.28;5034076;28;20442;-78
2021/09/18 04:03:38;;;;;;;14.13;9.67;;;;;;;20.00;98.39;94493.91;5034652;28;20834;-78
2021/09/18 04:06:05;;;;;;;24.53;8.87;;;;;;;19.99;98.90;94488.78;5034156;28;20453;-78
2021/09/18 04:08:32;;;;;;;14.97;8.93;;;;;;;19.99;98.64;94488.78;5034401;28;20452;-78
2021/09/18 04:10:59;;;;;;;15.57;8.53;;;;;;;20.02;98.87;94491.88;5033905;28;20569;-78
2021/09/18 04:13:26;;;;;;;12.73;9.23;;;;;;;20.02;98.93;94491.88;5034175;28;20443;-78
2021/09/18 04:15:54;;;;;;;17.77;8.83;;;;;;;20.02;98.54;94496.38;5034129;28;20812;-78
2021/09/18 04:18:21;;;;;;;16.10;7.87;;;;;;;20.03;98.52;94495.38;5034034;28;20461;-78
2021/09/18 04:20:48;;;;;;;15.67;8.60;;;;;;;20.08;98.31;94498.25;5033854;28;20454;-78
2021/09/18 04:23:15;;;;;;;16.83;8.50;;;;;;;20.08;98.19;94496.41;5034031;28;20448;-78
2021/09/18 04:25:42;;;;;;;14.60;7.80;;;;;;;20.11;98.15;94500.50;5033864;28;20951;-78
2021/09/18 04:28:09;;;;;;;14.70;7.77;;;;;;;20.12;97.50;94499.50;5033684;28;20444;-78
2021/09/18 04:30:36;;;;;;;15.33;7.13;;;;;;;20.17;97.36;94497.06;5033629;28;20488;-78
2021/09/18 04:33:04;;;;;;;20.07;7.30;;;;;;;20.16;97.20;94494.59;5034005;28;20519;-78
2021/09/18 04:35:31;;;;;;;12.63;7.30;;;;;;;20.18;96.84;94503.19;5033814;28;20453;-78
2021/09/18 04:37:58;;;;;;;15.23;7.90;;;;;;;20.19;96.76;94494.19;5015228;28;20446;-78
2021/09/18 04:40:25;;;;;;;6.80;5.90;;;;;;;20.14;96.74;94484.13;5033601;28;20457;-78
2021/09/18 04:42:52;;;;;;;9.37;7.07;;;;;;;20.16;96.43;94490.09;5033573;28;20934;-78
2021/09/18 04:45:19;;;;;;;15.13;7.23;;;;;;;20.17;96.64;94499.72;5033271;28;20444;-78
2021/09/18 04:47:46;;;;;;;20.40;7.40;;;;;;;20.15;97.11;94525.72;5033439;28;20456;-78
2021/09/18 04:50:14;;;;;;;17.53;8.20;;;;;;;20.13;97.30;94550.94;5033276;28;20489;-78
2021/09/18 04:52:41;;;;;;;13.60;7.80;;;;;;;20.15;97.69;94568.34;5033579;28;20456;-78
2021/09/18 04:55:09;;;;;;;16.23;7.20;;;;;;;20.09;97.94;94574.47;5014736;28;20450;-78
2021/09/18 04:57:36;;;;;;;10.20;7.50;;;;;;;20.06;98.06;94572.22;5030989;28;20470;-78
2021/09/18 05:00:04;;;;;;;16.90;8.03;;;;;;;19.96;98.21;94607.19;5033228;28;20446;-78
2021/09/18 05:02:31;;;;;;;16.13;8.30;;;;;;;19.90;99.41;94607.94;5033446;28;20445;-78
2021/09/18 05:04:58;;;;;;;18.77;8.80;;;;;;;19.73;100.00;94602.09;5033498;28;20451;-78
2021/09/18 05:07:26;;;;;;;15.37;9.10;;;;;;;19.63;100.00;94580.28;5033200;28;20535;-78
2021/09/18 05:09:53;;;;;;;21.37;10.17;;;;;;;19.59;100.00;94578.22;5014558;28;20486;-78
2021/09/18 05:12:20;;;;;;;16.80;10.10;;;;;;;19.56;100.00;94566.13;5032795;28;20453;-78
2021/09/18 05:14:47;;;;;;;10.53;8.00;;;;;;;19.63;100.00;94532.38;5033233;28;20442;-78
2021/09/18 05:17:13;;;;;;;19.93;8.47;;;;;;;19.65;100.00;94526.88;5032543;28;20467;-78
2021/09/18 05:19:40;;;;;;;16.50;8.73;;;;;;;19.73;100.00;94548.84;5032955;28;20786;-78
2021/09/18 05:22:09;;;;;;;17.73;10.60;;;;;;;19.79;100.00;94550.72;5032789;28;20451;-78
2021/09/18 05:24:37;;;;;;;27.00;9.63;;;;;;;19.91;100.00;94537.69;5014134;28;20816;-78
2021/09/18 05:27:05;;;;;;;17.07;9.30;;;;;;;19.89;100.00;94531.75;5033163;28;20452;-78
2021/09/18 05:29:34;;;;;;;12.47;8.50;;;;;;;19.93;100.00;94535.66;4997541;28;20512;-78
2021/09/18 05:32:01;;;;;;;15.20;9.10;;;;;;;19.90;100.00;94536.03;5032978;28;20540;-78
2021/09/18 05:34:28;;;;;;;17.90;10.67;;;;;;;19.92;100.00;94534.00;5032512;28;20671;-78
2021/09/18 05:36:55;;;;;;;19.17;9.10;;;;;;;19.98;100.00;94532.44;5032520;28;20447;-78
2021/09/18 05:39:22;;;;;;;15.37;9.00;;;;;;;20.08;100.00;94543.53;5032478;28;20450;-78
2021/09/18 05:41:50;;;;;;;15.17;8.30;;;;;;;20.21;100.00;94551.59;5032506;28;20450;-78
2021/09/18 05:44:17;;;;;;;22.07;7.67;;;;;;;20.18;98.83;94551.97;5032395;28;20457;-78
2021/09/18 05:46:44;;;;;;;15.90;8.10;;;;;;;20.27;98.83;94558.00;5031879;28;20445;-78
2021/09/18 05:49:11;;;;;;;15.27;7.50;;;;;;;20.24;98.47;94551.22;5032326;28;20456;-78
2021/09/18 05:51:38;;;;;;;13.13;7.37;;;;;;;20.33;98.15;94550.03;5032429;28;20493;-78
2021/09/18 05:54:05;;;;;;;18.83;8.43;;;;;;;20.44;97.67;94559.31;5032459;28;20442;-78
2021/09/18 05:56:32;;;;;;;16.70;8.50;;;;;;;20.60;98.25;94550.97;5032220;28;20474;-78
2021/09/18 05:59:00;;;;;;;17.40;8.97;;;;;;;20.82;97.79;94546.34;5032404;28;20454;-78
2021/09/18 06:01:27;;;;;;;14.93;7.37;;;;;;;21.15;97.49;94543.72;5031932;28;20448;-78
2021/09/18 06:03:54;;;;;;;16.40;7.83;;;;;;;21.47;96.06;94542.16;5032478;28;20454;-78
2021/09/18 06:06:21;;;;;;;13.93;7.63;;;;;;;21.62;93.39;94556.09;5032165;28;20457;-78
2021/09/18 06:08:48;;;;;;;16.13;7.70;;;;;;;21.66;92.48;94556.50;5032056;28;20438;-78
2021/09/18 06:11:15;;;;;;;18.57;8.33;;;;;;;21.60;91.98;94570.69;5032178;28;20529;-78
2021/09/18 06:13:42;;;;;;;14.33;8.93;;;;;;;21.59;91.57;94566.38;5032302;28;20526;-78
2021/09/18 06:16:10;;;;;;;28.03;10.97;;;;;;;21.55;92.36;94568.63;5031960;28;20448;-78
2021/09/18 06:18:37;;;;;;;17.20;9.20;;;;;;;21.45;91.67;94559.41;5032055;28;20453;-78
2021/09/18 06:21:06;;;;;;;14.50;8.00;;;;;;;21.39;92.70;94574.34;5031904;28;20960;-78
2021/09/18 06:23:37;;;;;;;13.30;7.73;;;;;;;21.39;93.20;94568.19;5031912;28;20479;-78
2021/09/18 06:26:04;;;;;;;12.20;8.73;;;;;;;21.33;94.20;94572.50;5031855;28;20843;-78
2021/09/18 06:28:31;;;;;;;20.23;8.70;;;;;;;21.28;93.47;94577.66;5031946;28;20440;-78
2021/09/18 06:30:58;;;;;;;20.27;9.83;;;;;;;21.30;94.03;94578.25;5031898;28;20510;-78
2021/09/18 06:33:27;;;;;;;11.83;8.93;;;;;;;21.46;95.70;94579.72;5031668;28;20444;-78
2021/09/18 06:35:54;;;;;;;19.47;13.73;;;;;;;21.65;95.40;94576.22;5032156;28;20445;-78
2021/09/18 06:38:22;;;;;;;21.13;15.30;;;;;;;21.87;93.68;94568.81;5032056;28;20461;-78
2021/09/18 06:40:50;;;;;;;16.40;11.37;;;;;;;21.96;91.70;94572.91;5032021;28;20451;-78
2021/09/18 06:43:17;;;;;;;17.17;9.70;;;;;;;22.06;90.12;94577.88;5013369;28;20950;-78
2021/09/18 06:45:44;;;;;;;19.63;11.60;;;;;;;22.10;89.92;94577.25;5031694;28;20447;-78
2021/09/18 06:48:11;;;;;;;23.30;17.30;;;;;;;22.07;88.81;94574.19;5031655;28;20451;-78
2021/09/18 06:50:40;;;;;;;31.13;16.27;;;;;;;22.06;89.40;94573.34;5031509;28;20533;-78
2021/09/18 06:53:08;;;;;;;22.73;12.50;;;;;;;22.08;91.13;94576.63;5031587;28;20444;-78
2021/09/18 06:55:36;;;;;;;22.90;12.50;;;;;;;22.11;91.97;94589.59;5032003;28;20506;-78
2021/09/18 06:58:03;;;;;;;31.40;14.70;;;;;;;22.22;92.62;94582.75;5033323;28;20514;-78
2021/09/18 07:00:31;;;;;;;23.23;11.13;;;;;;;22.43;91.68;94579.84;5035345;28;20455;-78
2021/09/18 07:02:58;;;;;;;22.10;8.80;;;;;;;22.44;85.92;94602.88;5035479;28;20534;-78
2021/09/18 07:05:25;;;;;;;11.13;7.67;;;;;;;22.45;86.79;94603.69;5035405;28;20435;-78
2021/09/18 07:07:53;;;;;;;15.53;7.70;;;;;;;22.38;86.76;94613.59;5035443;28;20536;-78
2021/09/18 07:10:20;;;;;;;11.37;8.50;;;;;;;22.25;86.39;94598.38;5035045;28;20488;-78
2021/09/18 07:12:47;;;;;;;14.10;9.50;;;;;;;22.18;87.25;94598.41;5035100;28;20453;-78
2021/09/18 07:15:14;;;;;;;13.90;9.40;;;;;;;22.02;87.93;94609.50;5035028;28;21058;-78
2021/09/18 07:17:41;;;;;;;20.70;10.10;;;;;;;21.95;88.72;94589.97;5035419;28;20455;-78
2021/09/18 07:20:10;;;;;;;25.43;9.70;;;;;;;21.79;88.99;94587.75;5035268;28;20445;-78
2021/09/18 07:22:38;;;;;;;17.43;11.20;;;;;;;21.82;91.01;94587.31;5035297;28;20449;-78
2021/09/18 07:25:07;;;;;;;18.30;10.10;;;;;;;22.13;90.80;94586.69;5034784;28;20447;-78
2021/09/18 07:27:35;;;;;;;16.50;9.93;;;;;;;22.55;88.49;94598.72;5034880;28;20528;-78
2021/09/18 07:30:02;;;;;;;22.80;10.37;;;;;;;23.05;88.20;94590.94;5034973;28;20805;-78
2021/09/18 07:32:29;;;;;;;15.93;9.57;;;;;;;23.48;84.93;94591.09;5034775;28;20458;-78
2021/09/18 07:34:56;;;;;;;12.57;9.43;;;;;;;23.72;82.34;94590.34;5034762;28;20934;-78
2021/09/18 07:37:23;;;;;;;17.10;9.90;;;;;;;23.91;81.34;94601.91;5034842;28;20454;-78
2021/09/18 07:39:50;;;;;;;14.33;8.50;;;;;;;24.04;82.46;94603.66;5035018;28;20440;-78
2021/09/18 07:42:18;;;;;;;13.77;9.00;;;;;;;24.15;82.04;94610.97;5034574;28;20966;-78
2021/09/18 07:44:45;;;;;;;13.97;8.67;;;;;;;24.20;78.36;94621.03;5034615;28;20936;-78
2021/09/18 07:47:12;;;;;;;18.40;10.43;;;;;;;24.28;79.17;94599.31;5034613;28;20455;-78
2021/09/18 07:49:39;;;;;;;14.30;9.73;;;;;;;24.21;78.31;94595.88;5034462;28;20530;-78
2021/09/18 07:52:06;;;;;;;17.93;11.50;;;;;;;23.88;77.16;94605.03;5034536;28;21001;-78
2021/09/18 07:54:33;;;;;;;13.00;9.63;;;;;;;23.70;79.54;94591.56;5016022;28;20535;-78
2021/09/18 07:57:01;;;;;;;18.20;11.37;;;;;;;23.55;80.37;94609.78;5034822;28;20479;-78
2021/09/18 07:59:29;;;;;;;15.90;10.60;;;;;;;23.24;80.56;94600.72;5034353;28;20446;-78
2021/09/18 08:01:56;;;;;;;16.00;11.10;;;;;;;23.01;82.95;94595.06;5034344;28;20966;-78
2021/09/18 08:04:23;;;;;;;14.33;9.77;;;;;;;22.74;83.13;94592.47;5034336;28;20444;-78
2021/09/18 08:06:50;;;;;;;16.43;9.73;;;;;;;22.51;84.51;94609.00;5016010;28;20438;-78
2021/09/18 08:09:17;;;;;;;19.70;11.37;;;;;;;22.41;87.03;94608.66;5033886;28;20467;-78
2021/09/18 08:11:44;;;;;;;20.83;9.10;;;;;;;22.30;87.41;94600.47;5034030;28;20484;-78
2021/09/18 08:14:11;;;;;;;16.47;8.60;;;;;;;22.11;86.95;94623.50;5033926;28;20549;-78
2021/09/18 08:16:39;;;;;;;13.50;9.63;;;;;;;21.93;87.76;94606.22;5031932;28;20816;-78
2021/09/18 08:19:06;;;;;;;16.70;9.63;;;;;;;21.91;88.29;94623.47;5034044;28;20798;-78
2021/09/18 08:21:33;;;;;;;15.77;10.30;;;;;;;21.87;88.58;94600.88;5034086;28;20818;-78
2021/09/18 08:24:00;;;;;;;23.30;12.20;;;;;;;21.87;90.67;94598.22;5033816;28;20476;-78
2021/09/18 08:26:30;;;;;;;18.27;8.67;;;;;;;21.85;88.40;94594.91;5034010;28;20450;-78
2021/09/18 08:28:57;;;;;;;10.90;8.70;;;;;;;21.72;87.59;94592.28;5034002;28;20479;-78
2021/09/18 08:31:24;;;;;;;18.77;9.67;;;;;;;21.50;87.27;94608.47;5033841;28;20494;-78
2021/09/18 08:33:53;;;;;;;15.43;9.80;;;;;;;21.31;89.82;94601.25;5033816;28;20804;-78
2021/09/18 08:36:20;;;;;;;11.47;8.97;;;;;;;21.19;91.36;94603.69;5033632;28;20454;-78
2021/09/18 08:38:47;;;;;;;13.10;9.20;;;;;;;21.22;91.96;94618.47;5033812;28;20803;-78
2021/09/18 08:41:15;;;;;;;18.17;10.17;;;;;;;21.22;91.45;94605.13;5033492;28;20515;-78
2021/09/18 08:43:43;;;;;;;24.43;10.50;;;;;;;21.20;90.31;94601.84;5033414;28;20819;-78
2021/09/18 08:46:10;;;;;;;19.13;10.37;;;;;;;21.28;90.50;94615.84;5033404;28;20964;-78
2021/09/18 08:48:40;;;;;;;19.00;8.50;;;;;;;21.48;91.23;94613.19;5033426;28;20454;-78
2021/09/18 08:51:10;;;;;;;14.50;8.67;;;;;;;21.67;91.99;94618.75;5033266;28;20483;-78
2021/09/18 08:53:37;;;;;;;15.53;9.50;;;;;;;21.72;87.94;94617.13;5033089;28;20454;-78
2021/09/18 08:56:05;;;;;;;11.00;8.90;;;;;;;21.76;87.00;94609.53;5033386;28;20472;-78
2021/09/18 08:58:32;;;;;;;14.57;9.43;;;;;;;21.78;85.92;94607.47;5033179;28;20452;-78
2021/09/18 09:00:59;;;;;;;16.57;9.70;;;;;;;21.88;87.10;94614.03;5033413;28;20456;-78
2021/09/18 09:03:29;;;;;;;20.37;9.40;;;;;;;22.03;85.52;94608.47;5033542;28;20450;-78
2021/09/18 09:06:10;;;;;;;10.67;9.57;;;;;;;22.14;84.48;94629.25;5033236;28;20459;-78
2021/09/18 09:08:39;;;;;;;19.23;11.60;;;;;;;22.21;85.37;94635.41;5032981;28;20460;-78
2021/09/18 09:11:19;;;;;;;16.67;11.43;;;;;;;22.20;85.33;94640.97;5032973;28;20475;-78
2021/09/18 09:13:57;;;;;;;14.13;11.13;;;;;;;22.12;85.17;94636.66;5032938;28;20491;-78
2021/09/18 09:16:25;;;;;;;16.00;13.10;;;;;;;21.77;85.21;94638.69;5032862;28;20453;-78
2021/09/18 09:18:51;;;;;;;17.13;12.17;;;;;;;21.64;85.53;94639.50;5033005;28;20530;-78
2021/09/18 09:21:22;;;;;;;18.33;14.37;;;;;;;21.43;86.76;94641.53;5032382;28;20447;-78
2021/09/18 09:24:05;;;;;;;17.30;13.37;;;;;;;21.23;87.83;94620.09;5033315;28;20639;-78
2021/09/18 09:26:35;;;;;;;21.37;14.87;;;;;;;21.17;90.00;94618.25;5032676;28;20451;-78
2021/09/18 09:29:03;;;;;;;20.53;14.97;;;;;;;21.10;89.43;94625.41;5032598;28;20443;-78
2021/09/18 09:31:30;;;;;;;23.93;13.70;;;;;;;21.11;89.86;94624.41;5014114;28;20483;-78
2021/09/18 09:34:06;;;;;;;18.83;13.97;;;;;;;21.15;90.23;94609.63;5032714;28;20836;-78
2021/09/18 09:36:39;;;;;;;21.13;15.40;;;;;;;21.20;90.14;94596.50;5032817;28;20453;-78
2021/09/18 09:39:09;;;;;;;18.57;12.67;;;;;;;21.14;89.11;94582.13;5032576;28;20811;-78
2021/09/18 09:41:38;;;;;;;12.63;10.10;;;;;;;21.06;86.85;94584.13;5032505;28;20946;-78
2021/09/18 09:44:09;;;;;;;14.17;9.60;;;;;;;20.92;85.68;94597.44;5032820;28;20442;-78
2021/09/18 09:46:36;;;;;;;11.27;9.63;;;;;;;20.88;87.21;94601.53;5032651;28;20457;-78
2021/09/18 09:49:13;;;;;;;14.57;9.37;;;;;;;20.89;87.28;94619.19;5032527;28;20455;-78
2021/09/18 09:51:42;;;;;;;12.20;9.07;;;;;;;20.64;88.24;94626.06;5032228;28;20495;-78
2021/09/18 09:54:18;;;;;;;14.10;9.03;;;;;;;20.69;89.28;94628.94;5032443;28;20435;-78
2021/09/18 09:56:45;;;;;;;15.20;9.03;;;;;;;20.70;89.12;94634.09;5032495;28;20495;-78
2021/09/18 09:59:12;;;;;;;15.17;10.63;;;;;;;20.65;89.81;94636.53;5032526;28;20443;-78
2021/09/18 10:01:39;;;;;;;13.13;9.93;;;;;;;20.57;90.16;94638.53;5013762;28;20444;-78
2021/09/18 10:04:06;;;;;;;14.87;10.90;;;;;;;20.58;90.98;94640.19;5030168;28;20455;-78
2021/09/18 10:06:33;;;;;;;12.67;10.00;;;;;;;20.40;90.72;94633.53;5013681;28;20446;-78
2021/09/18 10:09:02;;;;;;;16.27;11.57;;;;;;;20.28;91.58;94632.41;5032390;28;20788;-78
2021/09/18 10:11:34;;;;;;;12.23;9.80;;;;;;;20.27;91.46;94643.25;5013540;28;20573;-78
2021/09/18 10:14:03;;;;;;;12.00;10.13;;;;;;;20.14;91.81;94641.31;5032173;28;20952;-78
2021/09/18 10:16:32;;;;;;;11.60;10.20;;;;;;;20.10;90.60;94653.38;5032434;28;20461;-78
2021/09/18 10:19:03;;;;;;;16.03;11.63;;;;;;;20.03;91.21;94661.34;5032107;28;20487;-78
2021/09/18 10:24:17;;;;;;;12.30;9.53;;;;;;;19.75;91.91;94690.59;5032106;28;20426;-78
2021/09/18 10:26:44;;;;;;;13.43;10.23;;;;;;;19.72;92.74;94701.63;5032102;28;20790;-78
2021/09/18 10:29:11;;;;;;;16.03;11.30;;;;;;;19.49;91.93;94720.41;5031741;28;20448;-78
2021/09/18 10:31:38;;;;;;;13.20;11.80;;;;;;;19.11;93.82;94734.91;5032801;28;20522;-78
2021/09/18 10:34:22;;;;;;;15.10;12.00;;;;;;;18.92;94.80;94738.16;5035937;28;20443;-78
2021/09/18 10:36:49;;;;;;;15.70;10.67;;;;;;;18.83;96.61;94759.53;5035958;28;20449;-78
2021/09/18 10:39:19;;;;;;;22.20;11.47;;;;;;;18.79;98.63;94776.00;5035768;28;20442;-78
2021/09/18 10:41:48;;;;;;;13.70;11.17;;;;;;;18.72;99.62;94772.44;5036163;28;20459;-78
2021/09/18 10:44:17;;;;;;;15.63;10.23;;;;;;;18.62;100.00;94751.44;5035689;28;20451;-78
2021/09/18 10:46:46;;;;;;;16.30;10.23;;;;;;;18.67;100.00;94719.81;5035738;28;20814;-78
2021/09/18 10:49:40;;;;;;;14.93;11.00;;;;;;;18.82;99.92;94711.84;5035610;28;20451;-78
2021/09/18 10:52:24;;;;;;;11.80;7.13;;;;;;;18.88;99.32;94708.44;4993945;28;20567;-78
2021/09/18 10:55:12;;;;;;;10.67;7.23;;;;;;;18.88;97.46;94692.50;4994095;28;20451;-78
2021/09/18 10:58:08;;;;;;;9.83;6.07;;;;;;;18.88;95.98;94687.19;4993556;28;20913;-78
2021/09/18 11:00:44;;;;;;;7.53;4.83;;;;;;;18.70;96.64;94673.44;4993984;28;20453;-78
2021/09/18 11:03:12;;;;;;;9.00;5.17;;;;;;;18.69;97.16;94669.13;4993729;28;20531;-78
2021/09/18 11:05:45;;;;;;;9.50;6.03;;;;;;;18.53;98.57;94657.66;4961424;28;20446;-78
2021/09/18 11:08:34;;;;;;;9.70;7.40;;;;;;;18.55;98.30;94650.34;4993654;28;20458;-78
2021/09/18 11:11:12;;;;;;;12.70;7.60;;;;;;;17.96;100.00;94654.81;4993757;28;20529;-78
2021/09/18 11:13:42;;;;;;;18.63;11.70;;;;;;;17.88;100.00;94652.19;4993636;28;20457;-78
2021/09/18 11:16:22;;;;;;;16.30;11.93;;;;;;;17.67;100.00;94652.06;4993413;28;20456;-78
2021/09/18 11:18:58;;;;;;;15.60;7.90;;;;;;;17.32;100.00;94662.25;4993566;28;20499;-78
2021/09/18 11:21:26;;;;;;;11.20;8.90;;;;;;;17.57;100.00;94660.25;4993556;28;20476;-78
2021/09/18 11:23:56;;;;;;;13.00;8.30;;;;;;;17.80;100.00;94670.88;4993398;28;20449;-78
2021/09/18 11:26:46;;;;;;;10.13;7.97;;;;;;;17.97;100.00;94666.25;4961077;28;20520;-78
2021/09/18 11:29:32;;;;;;;9.00;5.20;;;;;;;18.07;100.00;94664.97;5017122;28;20449;-78
2021/09/18 11:32:12;;;;;;;7.97;6.53;;;;;;;18.10;100.00;94674.41;5035121;28;20542;-78